Time;durP1;ratioP1;P1;durP2;ratioP2;P2;SDS_P1;SDS_P2;PMS_P1;PMS_P2;Temp;Humidity;BMP_temperature;BMP_pressure;BME280_temperature;BME280_humidity;BME280_pressure;Samples;Min_cycle;Max_cycle;Signal;HPM_P1;HPM_P2
2021/05/08 00:00:33;;;;;;;26.30;8.88;;;13.00;97.40;;;;;;5158012;27;20026;-82
2021/05/08 00:02:59;;;;;;;18.83;7.93;;;13.00;97.60;;;;;;5158523;27;20376;-80
2021/05/08 00:05:25;;;;;;;18.60;7.50;;;13.10;97.80;;;;;;5158295;27;20030;-82
2021/05/08 00:07:51;;;;;;;19.98;7.53;;;13.10;97.80;;;;;;5138405;27;20495;-81
2021/05/08 00:10:17;;;;;;;11.88;6.80;;;13.10;97.90;;;;;;5157574;27;20460;-81
2021/05/08 00:12:44;;;;;;;13.30;7.38;;;13.10;98.00;;;;;;5157778;27;20048;-81
2021/05/08 00:15:11;;;;;;;15.32;8.43;;;13.20;98.00;;;;;;5157984;27;20151;-81
2021/05/08 00:17:38;;;;;;;12.50;6.95;;;13.20;98.00;;;;;;5157455;27;20388;-81
2021/05/08 00:20:09;;;;;;;9.15;6.72;;;13.20;98.10;;;;;;5158044;27;20030;-81
2021/05/08 00:22:35;;;;;;;13.00;5.82;;;13.30;98.10;;;;;;5157719;27;20023;-81
2021/05/08 00:25:00;;;;;;;9.95;5.82;;;13.30;98.10;;;;;;5157496;27;20387;-81
2021/05/08 00:27:26;;;;;;;9.63;5.10;;;13.30;98.00;;;;;;5157021;27;20071;-81
2021/05/08 00:29:52;;;;;;;6.47;5.10;;;13.30;97.90;;;;;;5138525;27;20034;-82
2021/05/08 00:32:17;;;;;;;8.75;5.57;;;13.30;97.90;;;;;;5156681;27;20532;-81
2021/05/08 00:34:43;;;;;;;9.57;5.57;;;13.30;97.80;;;;;;5157045;27;20101;-81
2021/05/08 00:37:09;;;;;;;8.52;5.85;;;13.30;97.60;;;;;;5135058;27;20540;-81
2021/05/08 00:39:35;;;;;;;7.35;5.30;;;13.20;97.50;;;;;;5136558;27;20054;-81
2021/05/08 00:42:01;;;;;;;6.53;5.45;;;13.20;97.30;;;;;;5157216;27;20560;-81
2021/05/08 00:44:27;;;;;;;10.60;5.63;;;13.20;97.50;;;;;;5156906;27;20026;-81
2021/05/08 00:46:55;;;;;;;8.68;5.45;;;13.20;97.60;;;;;;5156690;27;20051;-81
2021/05/08 00:49:22;;;;;;;10.48;5.60;;;13.20;97.70;;;;;;5156979;27;20027;-81
2021/05/08 00:51:47;;;;;;;10.48;5.32;;;13.20;97.90;;;;;;5157064;27;20034;-80
2021/05/08 00:54:13;;;;;;;9.30;6.30;;;13.20;97.90;;;;;;5157101;27;20027;-80
2021/05/08 00:56:40;;;;;;;8.55;5.53;;;13.20;98.00;;;;;;5134201;27;20045;-80
2021/05/08 00:59:06;;;;;;;8.57;5.47;;;13.20;98.00;;;;;;5135998;27;20035;-79
2021/05/08 01:01:32;;;;;;;8.98;5.22;;;13.30;98.10;;;;;;5135879;27;20042;-78
2021/05/08 01:03:58;;;;;;;10.38;5.43;;;13.30;98.10;;;;;;5118186;27;20051;-78
2021/05/08 01:06:24;;;;;;;10.15;5.03;;;13.30;98.20;;;;;;5141510;27;20106;-77
2021/05/08 01:08:50;;;;;;;9.80;5.88;;;13.30;98.20;;;;;;5154046;27;20436;-77
2021/05/08 01:11:16;;;;;;;13.30;6.55;;;13.40;98.10;;;;;;5155520;27;20031;-77
2021/05/08 01:13:42;;;;;;;8.85;5.60;;;13.40;98.10;;;;;;5138185;27;20434;-78
2021/05/08 01:16:08;;;;;;;6.32;5.10;;;13.40;98.00;;;;;;5156410;27;20035;-78
2021/05/08 01:18:34;;;;;;;12.57;5.60;;;13.40;97.90;;;;;;5156617;27;20396;-77
2021/05/08 01:21:01;;;;;;;15.23;5.60;;;13.40;97.90;;;;;;5156613;27;20030;-77
2021/05/08 01:23:27;;;;;;;9.18;5.35;;;13.40;97.70;;;;;;5156178;27;20027;-79
2021/05/08 01:25:53;;;;;;;12.45;6.05;;;13.40;97.60;;;;;;5156281;27;20031;-77
2021/05/08 01:28:19;;;;;;;10.15;6.72;;;13.40;97.60;;;;;;5138212;27;20030;-77
2021/05/08 01:30:45;;;;;;;10.32;6.07;;;13.40;97.60;;;;;;5156431;27;20030;-77
2021/05/08 01:33:10;;;;;;;11.38;6.45;;;13.40;97.60;;;;;;5156434;27;20023;-77
2021/05/08 01:35:36;;;;;;;13.10;6.35;;;13.40;97.60;;;;;;5155904;27;20369;-77
2021/05/08 01:38:03;;;;;;;10.13;6.07;;;13.40;97.50;;;;;;5156911;27;20030;-77
2021/05/08 01:40:34;;;;;;;9.35;6.10;;;13.40;97.50;;;;;;5156320;27;20362;-77
2021/05/08 01:43:00;;;;;;;11.98;6.20;;;13.40;97.50;;;;;;5137121;27;20077;-77
2021/05/08 01:45:26;;;;;;;12.02;6.10;;;13.40;97.50;;;;;;5156588;27;20429;-77
2021/05/08 01:47:52;;;;;;;8.27;4.78;;;13.40;97.40;;;;;;5156663;27;20414;-77
2021/05/08 01:50:24;;;;;;;12.82;5.65;;;13.40;97.30;;;;;;5149638;27;20032;-78
2021/05/08 01:52:51;;;;;;;7.40;5.47;;;13.40;97.30;;;;;;5145182;27;20054;-78
2021/05/08 01:55:22;;;;;;;7.57;5.22;;;13.40;97.30;;;;;;5145559;27;20035;-78
2021/05/08 01:57:53;;;;;;;10.95;5.20;;;13.40;97.20;;;;;;5145314;27;20034;-77
2021/05/08 02:00:28;;;;;;;11.15;5.80;;;13.50;97.20;;;;;;5144464;27;20106;-77
2021/05/08 02:02:55;;;;;;;7.45;5.25;;;13.50;97.20;;;;;;5144048;27;20084;-76
2021/05/08 02:05:21;;;;;;;7.20;5.40;;;13.50;97.10;;;;;;5142204;27;20456;-77
2021/05/08 02:07:48;;;;;;;10.80;5.93;;;13.50;97.00;;;;;;5143949;27;20034;-76
2021/05/08 02:10:15;;;;;;;9.43;5.50;;;13.50;97.00;;;;;;5144003;27;20019;-77
2021/05/08 02:12:41;;;;;;;9.57;5.47;;;13.50;97.00;;;;;;5125666;27;20026;-76
2021/05/08 02:15:12;;;;;;;9.13;5.50;;;13.50;97.00;;;;;;5142490;27;20357;-76
2021/05/08 02:17:39;;;;;;;11.68;5.50;;;13.50;97.10;;;;;;5142224;27;20098;-76
2021/05/08 02:20:11;;;;;;;8.02;5.68;;;13.50;97.00;;;;;;5144006;27;20475;-76
2021/05/08 02:22:37;;;;;;;11.82;6.20;;;13.50;97.00;;;;;;5124959;27;20042;-76
2021/05/08 02:25:05;;;;;;;10.40;6.18;;;13.50;97.00;;;;;;5142435;27;20050;-76
2021/05/08 02:27:30;;;;;;;10.10;5.93;;;13.50;97.00;;;;;;5142088;27;20026;-76
2021/05/08 02:29:56;;;;;;;11.90;5.95;;;13.50;96.90;;;;;;5142319;27;20019;-76
2021/05/08 02:32:22;;;;;;;9.77;6.13;;;13.50;97.00;;;;;;5148214;27;20098;-76
2021/05/08 02:34:48;;;;;;;9.73;6.78;;;13.50;96.90;;;;;;5153397;27;20417;-76
2021/05/08 02:37:14;;;;;;;10.82;6.22;;;13.50;96.90;;;;;;5157883;27;20054;-75
2021/05/08 02:39:39;;;;;;;10.68;6.20;;;13.50;96.80;;;;;;5158433;27;20491;-75
2021/05/08 02:42:05;;;;;;;15.00;6.63;;;13.50;96.80;;;;;;5159012;27;20042;-75
2021/05/08 02:44:31;;;;;;;11.90;6.38;;;13.60;96.70;;;;;;5158910;27;20038;-75
2021/05/08 02:46:57;;;;;;;10.68;6.45;;;13.50;96.70;;;;;;5158699;27;20042;-75
2021/05/08 02:49:22;;;;;;;10.80;5.60;;;13.60;96.70;;;;;;5158530;27;20027;-77
2021/05/08 02:51:48;;;;;;;9.57;5.63;;;13.60;96.80;;;;;;5158290;27;20028;-75
2021/05/08 02:54:14;;;;;;;11.25;6.05;;;13.60;96.70;;;;;;5158649;27;20460;-75
2021/05/08 02:56:39;;;;;;;13.07;6.05;;;13.60;96.80;;;;;;5158831;27;20083;-75
2021/05/08 02:59:05;;;;;;;12.77;6.88;;;13.60;96.60;;;;;;5158701;27;20410;-75
2021/05/08 03:01:31;;;;;;;12.88;6.60;;;13.60;96.50;;;;;;5157605;27;20425;-76
2021/05/08 03:03:56;;;;;;;13.13;6.40;;;13.50;96.50;;;;;;5152819;27;20030;-75
2021/05/08 03:06:22;;;;;;;11.52;7.05;;;13.60;96.30;;;;;;5158532;27;20019;-75
2021/05/08 03:08:48;;;;;;;13.88;7.47;;;13.50;95.90;;;;;;5158496;27;20027;-76
2021/05/08 03:11:13;;;;;;;17.67;7.70;;;13.50;95.90;;;;;;5158195;27;20058;-75
2021/05/08 03:13:40;;;;;;;19.08;7.85;;;13.40;96.00;;;;;;5136167;27;20027;-75
2021/05/08 03:16:05;;;;;;;14.82;7.60;;;13.40;96.10;;;;;;5137602;27;20031;-75
2021/05/08 03:18:31;;;;;;;13.63;7.80;;;13.30;96.10;;;;;;5143258;27;20039;-76
2021/05/08 03:20:57;;;;;;;16.38;7.80;;;13.30;96.30;;;;;;5158959;27;20038;-75
2021/05/08 03:23:22;;;;;;;12.93;7.55;;;13.30;96.40;;;;;;5158086;27;20022;-75
2021/05/08 03:25:48;;;;;;;12.00;6.93;;;13.30;96.60;;;;;;5157926;27;20022;-75
2021/05/08 03:28:14;;;;;;;11.02;6.22;;;13.20;96.50;;;;;;5138924;27;20030;-75
2021/05/08 03:30:40;;;;;;;11.00;6.80;;;13.20;96.70;;;;;;5158047;27;20160;-75
2021/05/08 03:33:05;;;;;;;13.65;7.28;;;13.20;96.80;;;;;;5157022;27;20050;-75
2021/05/08 03:35:31;;;;;;;14.32;7.13;;;13.20;96.90;;;;;;5158124;27;20422;-74
2021/05/08 03:37:57;;;;;;;12.60;7.43;;;13.20;97.10;;;;;;5139038;27;20034;-75
2021/05/08 03:40:23;;;;;;;11.27;7.45;;;13.20;97.20;;;;;;5157674;27;20033;-75
2021/05/08 03:42:48;;;;;;;13.93;6.85;;;13.30;97.30;;;;;;5158031;27;20051;-75
2021/05/08 03:45:14;;;;;;;14.05;7.72;;;13.30;97.40;;;;;;5157489;27;20031;-75
2021/05/08 03:47:40;;;;;;;15.13;8.60;;;13.30;97.40;;;;;;5157427;27;20026;-75
2021/05/08 03:50:06;;;;;;;15.55;9.02;;;13.30;97.20;;;;;;5157041;27;20487;-75
2021/05/08 03:52:33;;;;;;;18.75;9.02;;;13.30;97.00;;;;;;5157492;27;20456;-76
2021/05/08 03:54:59;;;;;;;16.15;8.35;;;13.30;97.00;;;;;;5158028;27;20387;-75
2021/05/08 03:57:25;;;;;;;17.42;9.68;;;13.30;97.10;;;;;;5157448;27;20023;-75
2021/05/08 03:59:51;;;;;;;16.58;8.60;;;13.30;97.00;;;;;;5157239;27;20456;-75
2021/05/08 04:02:16;;;;;;;17.92;9.38;;;13.30;97.10;;;;;;5157138;27;20448;-75
2021/05/08 04:04:42;;;;;;;15.95;8.45;;;13.30;97.00;;;;;;5157446;27;20485;-75
2021/05/08 04:07:08;;;;;;;16.48;10.20;;;13.40;97.20;;;;;;5157315;27;20049;-75
2021/05/08 04:09:34;;;;;;;23.60;11.15;;;13.40;97.10;;;;;;5156924;27;20094;-78
2021/05/08 04:11:59;;;;;;;28.55;14.07;;;13.30;97.10;;;;;;5157559;27;20423;-75
2021/05/08 04:14:25;;;;;;;30.33;13.75;;;13.30;97.00;;;;;;5157131;27;20022;-75
2021/05/08 04:16:51;;;;;;;31.17;13.82;;;13.30;97.00;;;;;;5138226;27;20437;-75
2021/05/08 04:19:16;;;;;;;19.20;10.30;;;13.30;97.00;;;;;;5156305;27;20062;-76
2021/05/08 04:21:42;;;;;;;21.92;12.70;;;13.30;96.90;;;;;;5157549;27;20030;-77
2021/05/08 04:24:08;;;;;;;19.52;10.10;;;13.30;96.80;;;;;;5157315;27;20072;-76
2021/05/08 04:26:34;;;;;;;21.65;11.25;;;13.30;96.70;;;;;;5157933;27;20057;-76
2021/05/08 04:28:59;;;;;;;19.38;10.43;;;13.30;96.60;;;;;;5157263;27;20034;-76
2021/05/08 04:31:25;;;;;;;16.15;9.93;;;13.20;96.50;;;;;;5156049;27;20027;-77
2021/05/08 04:33:51;;;;;;;20.48;11.85;;;13.20;96.40;;;;;;5156918;27;20034;-76
2021/05/08 04:36:16;;;;;;;24.65;11.88;;;13.10;96.40;;;;;;5156807;27;20035;-77
2021/05/08 04:38:42;;;;;;;23.42;12.02;;;13.10;96.40;;;;;;5156504;27;20070;-77
2021/05/08 04:41:10;;;;;;;20.65;12.25;;;13.00;96.60;;;;;;5156503;27;20495;-77
2021/05/08 04:43:36;;;;;;;19.55;12.88;;;13.00;96.80;;;;;;5156583;27;20034;-79
2021/05/08 04:46:02;;;;;;;25.05;12.13;;;13.00;97.00;;;;;;5156393;27;20041;-77
2021/05/08 04:48:32;;;;;;;19.15;11.77;;;12.90;97.10;;;;;;5156973;27;20034;-75
2021/05/08 04:50:58;;;;;;;29.33;11.70;;;12.90;97.30;;;;;;5156563;27;20060;-76
2021/05/08 04:53:23;;;;;;;28.17;12.40;;;12.90;97.50;;;;;;5155653;27;20031;-76
2021/05/08 04:55:50;;;;;;;23.20;11.50;;;12.90;98.20;;;;;;5156128;27;20030;-77
2021/05/08 04:58:16;;;;;;;24.48;10.88;;;12.90;98.10;;;;;;5138242;27;20460;-77
2021/05/08 05:00:42;;;;;;;22.48;11.60;;;13.00;97.90;;;;;;5156573;27;20075;-77
2021/05/08 05:03:08;;;;;;;21.55;10.35;;;12.90;97.50;;;;;;5156786;27;20019;-76
2021/05/08 05:05:34;;;;;;;24.88;12.00;;;12.90;97.60;;;;;;5134165;27;20023;-77
2021/05/08 05:08:00;;;;;;;24.63;12.48;;;12.90;97.70;;;;;;5143199;27;20030;-81
2021/05/08 05:10:26;;;;;;;20.98;11.32;;;12.80;98.10;;;;;;5144350;27;20023;-81
2021/05/08 05:12:52;;;;;;;20.58;11.93;;;12.80;98.40;;;;;;5146404;27;20019;-82
2021/05/08 05:15:19;;;;;;;22.40;11.32;;;12.80;98.40;;;;;;5146456;27;20030;-82
2021/05/08 05:17:46;;;;;;;21.52;11.20;;;12.80;98.60;;;;;;5144221;27;20031;-83
2021/05/08 05:20:13;;;;;;;22.05;12.00;;;12.80;98.70;;;;;;5126733;27;20030;-81
2021/05/08 05:22:39;;;;;;;23.83;11.30;;;12.70;98.80;;;;;;5127602;27;20044;-84
2021/05/08 05:25:06;;;;;;;17.75;10.00;;;12.80;99.20;;;;;;5144281;27;20027;-82
2021/05/08 05:27:32;;;;;;;23.35;11.13;;;12.80;99.30;;;;;;5145297;27;20022;-82
2021/05/08 05:29:58;;;;;;;19.77;10.57;;;12.80;99.20;;;;;;5148524;27;20071;-82
2021/05/08 05:32:24;;;;;;;19.73;10.40;;;12.80;99.40;;;;;;5156011;27;20034;-82
2021/05/08 05:34:50;;;;;;;16.35;10.25;;;12.80;99.50;;;;;;5154494;27;20030;-83
2021/05/08 05:37:16;;;;;;;17.95;10.35;;;12.80;99.80;;;;;;5155588;27;20107;-82
2021/05/08 05:39:42;;;;;;;18.17;10.00;;;12.80;99.70;;;;;;5154171;27;20084;-82
2021/05/08 05:42:08;;;;;;;17.55;10.57;;;12.80;99.60;;;;;;5155229;27;20030;-82
2021/05/08 05:44:33;;;;;;;20.50;11.13;;;12.80;99.60;;;;;;5155494;27;20030;-82
2021/05/08 05:46:59;;;;;;;21.77;12.07;;;12.80;99.40;;;;;;5155497;27;20440;-82
2021/05/08 05:49:25;;;;;;;19.13;12.05;;;12.80;99.40;;;;;;5155081;27;20080;-83
2021/05/08 05:51:51;;;;;;;21.23;13.50;;;12.80;99.40;;;;;;5155101;27;20027;-83
2021/05/08 05:54:16;;;;;;;23.08;13.95;;;12.80;99.40;;;;;;5141897;27;20027;-82
2021/05/08 05:56:42;;;;;;;20.30;12.60;;;12.80;99.50;;;;;;5136457;27;20028;-83
2021/05/08 05:59:08;;;;;;;19.30;11.30;;;12.80;99.80;;;;;;5146424;27;20038;-82
2021/05/08 06:01:33;;;;;;;15.60;10.25;;;12.80;99.80;;;;;;5154633;27;20025;-82
2021/05/08 06:03:59;;;;;;;15.25;9.32;;;12.80;99.80;;;;;;5155647;27;20076;-82
2021/05/08 06:06:25;;;;;;;16.45;9.95;;;12.80;99.80;;;;;;5145814;27;20445;-81
2021/05/08 06:08:51;;;;;;;13.38;8.55;;;12.80;99.80;;;;;;5117376;27;20059;-83
2021/05/08 06:11:17;;;;;;;12.25;7.90;;;12.80;99.80;;;;;;5147978;27;20062;-82
2021/05/08 06:13:44;;;;;;;10.43;6.72;;;12.80;99.80;;;;;;5144322;27;20063;-83
2021/05/08 06:16:09;;;;;;;11.55;6.65;;;12.80;99.90;;;;;;5138155;27;20076;-83
2021/05/08 06:18:36;;;;;;;11.65;7.25;;;12.90;99.90;;;;;;5154585;27;20433;-82
2021/05/08 06:21:02;;;;;;;8.27;6.30;;;12.90;99.90;;;;;;5150162;27;20026;-83
2021/05/08 06:23:28;;;;;;;10.05;6.60;;;12.90;99.90;;;;;;5132941;28;20031;-82
2021/05/08 06:25:54;;;;;;;14.90;6.22;;;13.00;99.90;;;;;;5151670;27;20468;-82
2021/05/08 06:28:19;;;;;;;9.52;6.22;;;13.10;99.90;;;;;;5154285;27;20072;-81
2021/05/08 06:30:45;;;;;;;8.82;5.80;;;13.10;99.90;;;;;;5147548;27;20505;-82
2021/05/08 06:33:11;;;;;;;9.43;6.65;;;13.20;99.90;;;;;;5134717;28;20106;-81
2021/05/08 06:35:37;;;;;;;9.93;6.05;;;13.20;99.90;;;;;;5134280;28;20438;-81
2021/05/08 06:38:03;;;;;;;8.70;5.85;;;13.20;99.90;;;;;;5144787;27;20087;-82
2021/05/08 06:40:29;;;;;;;8.35;5.88;;;13.30;99.90;;;;;;5155262;27;20034;-82
2021/05/08 06:42:55;;;;;;;6.63;4.85;;;13.40;99.90;;;;;;5145210;27;20049;-83
2021/05/08 06:45:21;;;;;;;8.13;5.30;;;13.50;99.90;;;;;;5143931;27;20383;-82
2021/05/08 06:47:47;;;;;;;7.07;4.65;;;13.50;99.90;;;;;;5142247;27;20159;-82
2021/05/08 06:50:13;;;;;;;6.05;5.10;;;13.50;99.90;;;;;;5133899;28;20483;-82
2021/05/08 06:52:39;;;;;;;8.98;5.60;;;13.50;99.90;;;;;;5134303;28;20107;-82
2021/05/08 06:55:06;;;;;;;9.57;5.15;;;13.50;99.90;;;;;;5136419;27;20488;-81
2021/05/08 06:57:33;;;;;;;7.90;5.57;;;13.50;99.90;;;;;;5143108;27;20023;-82
2021/05/08 06:59:59;;;;;;;7.85;5.63;;;13.40;99.90;;;;;;5134509;27;20031;-82
2021/05/08 07:02:25;;;;;;;7.32;5.28;;;13.50;99.90;;;;;;5144043;27;20030;-82
2021/05/08 07:04:50;;;;;;;7.55;5.13;;;13.50;99.90;;;;;;5154493;27;20067;-82
2021/05/08 07:07:16;;;;;;;9.68;6.07;;;13.40;99.90;;;;;;5144849;27;20027;-81
2021/05/08 07:09:42;;;;;;;8.93;5.90;;;13.40;99.90;;;;;;5142113;27;20023;-82
2021/05/08 07:12:08;;;;;;;8.90;5.63;;;13.50;99.90;;;;;;5137257;27;20461;-83
2021/05/08 07:14:34;;;;;;;10.02;5.72;;;13.40;99.90;;;;;;5142294;27;20052;-82
2021/05/08 07:16:59;;;;;;;10.25;6.07;;;13.40;99.90;;;;;;5117585;27;20031;-81
2021/05/08 07:19:25;;;;;;;11.02;7.53;;;13.40;99.90;;;;;;5149899;27;20039;-81
2021/05/08 07:21:51;;;;;;;12.88;7.93;;;13.40;99.80;;;;;;5145384;27;20105;-81
2021/05/08 07:24:16;;;;;;;14.38;8.55;;;13.40;99.90;;;;;;5151851;27;20027;-82
2021/05/08 07:26:42;;;;;;;15.98;9.20;;;13.40;99.90;;;;;;5146690;27;20533;-82
2021/05/08 07:29:08;;;;;;;11.13;7.78;;;13.40;99.90;;;;;;5145292;27;20027;-82
2021/05/08 07:31:34;;;;;;;11.05;7.32;;;13.40;99.90;;;;;;5148872;27;20495;-83
2021/05/08 07:34:00;;;;;;;9.50;7.85;;;13.40;99.70;;;;;;5148569;27;20087;-82
2021/05/08 07:36:26;;;;;;;11.52;7.03;;;13.40;99.70;;;;;;5145785;27;20027;-82
2021/05/08 07:38:51;;;;;;;12.02;7.70;;;13.30;99.60;;;;;;5127077;27;20039;-82
2021/05/08 07:41:17;;;;;;;10.25;7.43;;;13.30;99.60;;;;;;5146639;27;20029;-82
2021/05/08 07:43:43;;;;;;;9.32;7.15;;;13.30;99.70;;;;;;5127103;27;20043;-80
2021/05/08 07:46:08;;;;;;;10.57;6.65;;;13.20;99.70;;;;;;5148385;27;20023;-82
2021/05/08 07:48:34;;;;;;;10.88;7.18;;;13.30;99.70;;;;;;5149373;27;20063;-79
2021/05/08 07:51:00;;;;;;;11.82;7.57;;;13.20;99.50;;;;;;5145824;27;20043;-79
2021/05/08 07:53:25;;;;;;;10.13;7.57;;;13.20;99.50;;;;;;5146083;27;20023;-80
2021/05/08 07:55:51;;;;;;;12.40;8.05;;;13.20;99.60;;;;;;5146212;27;20022;-79
2021/05/08 07:58:17;;;;;;;12.90;8.10;;;13.20;99.80;;;;;;5129595;27;20449;-78
2021/05/08 08:00:42;;;;;;;13.23;7.68;;;13.20;99.80;;;;;;5129765;27;20754;-78
2021/05/08 08:03:08;;;;;;;11.02;7.80;;;13.20;99.90;;;;;;5146477;27;20046;-78
2021/05/08 08:05:34;;;;;;;12.93;7.75;;;13.20;99.90;;;;;;5144058;27;20422;-78
2021/05/08 08:13:47;;;;;;;12.27;7.95;;;13.30;99.90;;;;;;5144667;27;20063;-79
2021/05/08 08:16:12;;;;;;;12.05;9.05;;;13.30;99.90;;;;;;5145842;27;20468;-80
2021/05/08 08:18:38;;;;;;;10.55;8.65;;;13.30;99.90;;;;;;5126066;27;20073;-79
2021/05/08 08:21:04;;;;;;;17.08;9.32;;;13.40;99.90;;;;;;5146638;27;20155;-79
2021/05/08 08:23:30;;;;;;;13.75;9.43;;;13.50;99.90;;;;;;5146960;27;20030;-79
2021/05/08 08:25:55;;;;;;;16.30;10.15;;;13.60;99.90;;;;;;5146730;27;20031;-78
2021/05/08 08:28:21;;;;;;;16.80;10.88;;;13.70;99.90;;;;;;5145510;27;20058;-77
2021/05/08 08:30:47;;;;;;;17.50;11.05;;;13.80;99.90;;;;;;5146464;27;20054;-81
2021/05/08 08:33:13;;;;;;;14.73;10.98;;;13.90;99.90;;;;;;5145141;27;20027;-78
2021/05/08 08:35:38;;;;;;;12.68;9.70;;;14.00;99.90;;;;;;5145376;27;20041;-79
2021/05/08 08:38:04;;;;;;;13.15;10.32;;;14.00;99.90;;;;;;5148358;27;20078;-78
2021/05/08 08:40:30;;;;;;;12.90;9.35;;;14.20;99.90;;;;;;5146520;27;20509;-79
2021/05/08 08:42:56;;;;;;;12.63;9.90;;;14.30;99.90;;;;;;5144523;27;20591;-78
2021/05/08 08:45:21;;;;;;;11.63;9.75;;;14.30;99.90;;;;;;5126994;27;20041;-79
2021/05/08 08:47:47;;;;;;;13.25;8.60;;;14.30;99.90;;;;;;5144236;27;20023;-80
2021/05/08 08:50:13;;;;;;;12.57;10.30;;;14.40;99.90;;;;;;5144607;27;20471;-78
2021/05/08 08:52:40;;;;;;;12.15;9.80;;;14.50;99.90;;;;;;5146146;27;20067;-78
2021/05/08 08:55:08;;;;;;;11.50;8.77;;;14.70;99.90;;;;;;5145840;27;20022;-79
2021/05/08 08:57:43;;;;;;;14.45;9.45;;;15.00;99.90;;;;;;5144759;27;20047;-79
2021/05/08 09:00:16;;;;;;;11.52;9.25;;;15.30;99.90;;;;;;5145065;27;20035;-79
2021/05/08 09:02:48;;;;;;;10.70;7.93;;;15.60;99.90;;;;;;5147757;27;20015;-78
2021/05/08 09:05:16;;;;;;;10.00;8.45;;;15.70;99.90;;;;;;5152667;27;20373;-77
2021/05/08 09:07:47;;;;;;;10.52;8.73;;;15.60;99.90;;;;;;5125622;27;20034;-78
2021/05/08 09:10:32;;;;;;;10.20;7.95;;;15.50;98.80;;;;;;5144184;27;20030;-79
2021/05/08 09:13:02;;;;;;;8.65;7.60;;;15.20;97.50;;;;;;5127903;27;20133;-79
2021/05/08 09:15:36;;;;;;;7.03;5.65;;;15.00;97.40;;;;;;5143520;27;20019;-79
2021/05/08 09:18:02;;;;;;;;;;;14.90;97.30;;;;;;5143285;27;20445;-79
2021/05/08 09:20:46;;;;;;;7.00;6.10;;;14.80;97.90;;;;;;5144479;27;19914;-79
2021/05/08 09:23:29;;;;;;;6.65;5.93;;;14.80;98.70;;;;;;5146391;27;20026;-77
2021/05/08 09:26:15;;;;;;;5.15;4.65;;;14.80;99.30;;;;;;5145203;27;20083;-79
2021/05/08 09:28:51;;;;;;;6.55;4.72;;;14.80;98.90;;;;;;5144750;27;20092;-79
2021/05/08 09:31:18;;;;;;;5.85;5.25;;;14.70;98.30;;;;;;5144857;27;20033;-79
2021/05/08 09:33:56;;;;;;;6.25;5.38;;;14.60;97.80;;;;;;5142897;27;20015;-78
2021/05/08 09:36:22;;;;;;;5.45;4.95;;;14.60;99.10;;;;;;5142534;27;20080;-78
2021/05/08 09:38:48;;;;;;;5.80;4.50;;;14.70;99.90;;;;;;5146005;27;20039;-82
2021/05/08 09:41:15;;;;;;;5.43;4.60;;;14.90;99.90;;;;;;5125063;27;20028;-78
2021/05/08 09:43:41;;;;;;;7.07;3.80;;;15.00;99.90;;;;;;5150939;27;20022;-79
2021/05/08 09:46:09;;;;;;;4.75;4.25;;;15.10;99.90;;;;;;5152269;27;20019;-78
2021/05/08 09:48:38;;;;;;;4.97;4.25;;;15.40;99.90;;;;;;5151382;27;20031;-77
2021/05/08 09:51:20;;;;;;;5.13;3.72;;;15.90;99.90;;;;;;5148150;27;20022;-77
2021/05/08 09:53:46;;;;;;;4.30;3.90;;;16.30;99.90;;;;;;5145675;27;20026;-79
2021/05/08 09:56:32;;;;;;;4.05;3.65;;;16.40;99.90;;;;;;5125915;27;20376;-78
2021/05/08 09:59:24;;;;;;;4.03;3.58;;;16.20;98.80;;;;;;5146210;27;20042;-77
2021/05/08 10:02:09;;;;;;;4.95;4.25;;;16.00;96.90;;;;;;5146079;27;20045;-78
2021/05/08 10:04:43;;;;;;;7.38;4.70;;;15.60;95.20;;;;;;5125696;27;20047;-77
2021/05/08 10:07:15;;;;;;;7.78;4.82;;;15.10;94.00;;;;;;5147825;27;20027;-77
2021/05/08 10:09:43;;;;;;;7.57;5.15;;;14.70;93.70;;;;;;5149068;27;20158;-78
2021/05/08 10:12:14;;;;;;;5.20;4.70;;;14.30;94.00;;;;;;5155081;27;20023;-80
2021/05/08 10:14:42;;;;;;;6.75;4.82;;;14.00;95.00;;;;;;5143982;27;20034;-78
2021/05/08 10:17:10;;;;;;;6.97;5.47;;;13.90;95.70;;;;;;5134098;28;20059;-78
2021/05/08 10:19:38;;;;;;;7.63;5.47;;;13.80;96.50;;;;;;5134164;28;20076;-77
2021/05/08 10:22:07;;;;;;;8.68;5.05;;;13.80;97.40;;;;;;5134268;27;20031;-78
2021/05/08 10:24:35;;;;;;;6.78;5.32;;;13.90;98.10;;;;;;5134200;28;20024;-77
2021/05/08 10:27:01;;;;;;;5.88;4.95;;;13.90;97.80;;;;;;5133771;28;20476;-79
2021/05/08 10:29:31;;;;;;;7.63;5.38;;;13.90;96.90;;;;;;5134124;27;20060;-77
2021/05/08 10:32:02;;;;;;;9.35;5.05;;;13.80;96.80;;;;;;5134020;28;20019;-77
2021/05/08 10:34:37;;;;;;;8.63;5.85;;;13.70;96.70;;;;;;5139113;27;20025;-76
2021/05/08 10:37:07;;;;;;;9.63;5.18;;;13.60;96.20;;;;;;5154623;27;20094;-77
2021/05/08 10:39:58;;;;;;;7.88;4.80;;;13.50;95.90;;;;;;5154849;27;20123;-78
2021/05/08 10:42:36;;;;;;;7.55;4.40;;;13.40;96.80;;;;;;5143634;27;20026;-77
2021/05/08 10:45:17;;;;;;;5.30;3.67;;;13.40;97.70;;;;;;5133163;28;20031;-77
2021/05/08 10:50:38;;;;;;;3.53;3.22;;;13.50;97.40;;;;;;5134049;27;20096;-78
2021/05/08 10:53:12;;;;;;;3.15;2.83;;;13.50;97.20;;;;;;5148798;27;20431;-78
2021/05/08 10:55:59;;;;;;;4.10;2.30;;;13.40;96.30;;;;;;5136590;27;20110;-78
2021/05/08 10:58:29;;;;;;;2.78;2.50;;;13.30;96.00;;;;;;5158428;27;20038;-77
2021/05/08 11:01:00;;;;;;;2.97;1.95;;;13.10;95.70;;;;;;5118568;27;20026;-77
2021/05/08 11:03:29;;;;;;;4.03;2.92;;;13.10;96.00;;;;;;5141896;27;20019;-76
2021/05/08 11:06:11;;;;;;;4.32;2.50;;;13.00;96.60;;;;;;5135365;27;20404;-77
2021/05/08 11:08:36;;;;;;;2.92;2.60;;;13.10;97.20;;;;;;5137732;27;20027;-76
2021/05/08 11:11:03;;;;;;;3.05;2.58;;;13.10;97.50;;;;;;5135030;27;20418;-77
2021/05/08 11:13:48;;;;;;;2.70;2.30;;;13.10;97.40;;;;;;5154695;27;20022;-76
2021/05/08 11:16:18;;;;;;;1.88;1.77;;;13.20;97.60;;;;;;5155897;27;20035;-77
2021/05/08 11:18:45;;;;;;;2.65;2.40;;;13.30;98.00;;;;;;5158573;27;20041;-77
2021/05/08 11:21:11;;;;;;;3.28;2.10;;;13.40;97.60;;;;;;5155934;27;20046;-78
2021/05/08 11:23:51;;;;;;;2.17;2.00;;;13.60;98.30;;;;;;5154932;27;20034;-76
2021/05/08 11:26:23;;;;;;;3.75;2.78;;;13.80;99.10;;;;;;5158104;27;20018;-77
2021/05/08 11:29:04;;;;;;;2.60;2.40;;;14.10;99.50;;;;;;5132672;27;20464;-77
2021/05/08 11:31:50;;;;;;;2.78;2.20;;;14.30;99.10;;;;;;5139577;27;20547;-76
2021/05/08 11:34:23;;;;;;;4.50;2.25;;;14.50;98.60;;;;;;5154895;27;20517;-77
2021/05/08 11:36:53;;;;;;;2.53;1.90;;;14.60;97.90;;;;;;5139828;27;20022;-77
2021/05/08 11:39:24;;;;;;;6.10;2.42;;;14.70;97.10;;;;;;5155796;27;20034;-77
2021/05/08 11:41:52;;;;;;;1.73;1.63;;;14.60;96.00;;;;;;5157783;27;20114;-77
2021/05/08 11:44:33;;;;;;;3.30;1.63;;;14.40;95.00;;;;;;5154091;27;20026;-78
2021/05/08 11:47:04;;;;;;;2.40;2.20;;;14.20;94.60;;;;;;5138485;27;20068;-76
2021/05/08 11:49:34;;;;;;;5.43;2.17;;;14.10;95.20;;;;;;5157457;27;20027;-78
2021/05/08 11:52:04;;;;;;;2.63;2.00;;;14.00;95.60;;;;;;5156910;27;20019;-76
2021/05/08 11:54:42;;;;;;;2.80;2.22;;;14.00;96.00;;;;;;5156827;27;20417;-77
2021/05/08 11:57:22;;;;;;;2.85;2.00;;;14.00;96.70;;;;;;5155943;27;20440;-76
2021/05/08 12:00:16;;;;;;;3.47;2.03;;;14.00;96.10;;;;;;5147588;27;20492;-78
2021/05/08 12:02:41;;;;;;;2.20;2.00;;;13.90;95.20;;;;;;5147039;27;20031;-77
2021/05/08 12:05:08;;;;;;;3.35;2.00;;;13.70;94.50;;;;;;5147274;27;20027;-76
2021/05/08 12:07:44;;;;;;;3.88;1.85;;;13.60;94.80;;;;;;5156808;27;20023;-76
2021/05/08 12:10:14;;;;;;;2.33;2.13;;;13.60;95.80;;;;;;5156968;27;20030;-76
2021/05/08 12:12:47;;;;;;;4.35;2.28;;;13.90;98.00;;;;;;5156800;27;20061;-76
2021/05/08 12:15:19;;;;;;;1.75;1.55;;;14.50;99.90;;;;;;5138538;27;20460;-76
2021/05/08 12:17:45;;;;;;;2.20;1.70;;;15.50;99.90;;;;;;5157187;27;20018;-76
2021/05/08 12:20:11;;;;;;;2.60;1.88;;;16.40;99.90;;;;;;5157198;27;20065;-76
2021/05/08 12:22:37;;;;;;;1.67;1.58;;;16.80;99.90;;;;;;5157463;27;20103;-76
2021/05/08 12:25:12;;;;;;;1.52;1.40;;;17.00;99.30;;;;;;5157993;27;20459;-76
2021/05/08 12:27:38;;;;;;;1.88;1.40;;;17.30;98.90;;;;;;5157219;27;20031;-76
2021/05/08 12:30:04;;;;;;;2.15;1.27;;;17.70;98.30;;;;;;5157799;27;20041;-76
2021/05/08 12:32:31;;;;;;;1.95;1.42;;;17.80;95.90;;;;;;5139017;27;20394;-76
2021/05/08 12:34:57;;;;;;;2.95;1.48;;;17.70;93.60;;;;;;5156709;27;20026;-76
2021/05/08 12:37:23;;;;;;;1.98;1.27;;;17.40;92.00;;;;;;5157079;27;20477;-76
2021/05/08 12:39:49;;;;;;;1.65;1.55;;;16.90;91.00;;;;;;5156557;27;20027;-78
2021/05/08 12:42:15;;;;;;;1.25;1.15;;;16.50;91.60;;;;;;5157536;27;20070;-79
2021/05/08 12:44:46;;;;;;;2.42;1.23;;;16.20;91.30;;;;;;5156734;27;20054;-77
2021/05/08 12:47:19;;;;;;;4.63;1.50;;;15.80;90.30;;;;;;5156385;27;20099;-77
2021/05/08 12:50:17;;;;;;;2.05;1.88;;;15.40;90.50;;;;;;5156530;27;20075;-76
2021/05/08 12:52:57;;;;;;;1.52;0.75;;;15.00;91.10;;;;;;5156434;27;20031;-76